Terminal Aerodrome Forecast
Issued by NWS

Home | Current Version | Previous Version | Text Only | Print | Product List | Glossary On
Versions: 1 2 3 4 5 6 7 8 9 10 11 12 13 14 15
267
FTUS42 TJSJ 251140
TAFJSJ
TAF
TJSJ 251140Z 2512/2612 08012KT P6SM VCSH FEW020 SCT040
     FM251300 06015KT P6SM VCSH SCT025 SCT050
     FM252200 09007KT P6SM SCT030=

USA.gov is the U.S. government's official web portal to all federal, state and local government web resources and services.